Terminal Aerodrome Forecast
Issued by NWS

Home | Current Version | Previous Version | Text Only | Print | Product List | Glossary On
Versions: 1 2 3 4 5 6 7 8 9 10 11 12 13
000
FTUS41 KBTV 270523
TAFRUT
TAF
KRUT 270523Z 2706/2806 VRB03KT P6SM SCT050 BKN080
     FM271200 VRB03KT P6SM SCT100 BKN150
     FM271800 33005KT P6SM SCT150
     FM280200 15005KT P6SM SKC
      AMD LTD TO CLD VIS AND WIND=

USA.gov is the U.S. government's official web portal to all federal, state and local government web resources and services.